sensor_id;sensor_type;location;lat;lon;timestamp;P1;durP1;ratioP1;P2;durP2;ratioP2
42598;SDS011;28225;42.714;23.860;2022-08-01T00:02:01;9.95;;;8.07;;
42598;SDS011;28225;42.714;23.860;2022-08-01T00:04:26;10.02;;;9.00;;
42598;SDS011;28225;42.714;23.860;2022-08-01T00:06:51;11.30;;;7.88;;
42598;SDS011;28225;42.714;23.860;2022-08-01T00:09:17;9.60;;;8.00;;
42598;SDS011;28225;42.714;23.860;2022-08-01T00:11:42;9.20;;;8.13;;
42598;SDS011;28225;42.714;23.860;2022-08-01T00:14:08;9.20;;;7.95;;
42598;SDS011;28225;42.714;23.860;2022-08-01T00:16:36;8.18;;;7.40;;
42598;SDS011;28225;42.714;23.860;2022-08-01T00:19:02;8.38;;;7.47;;
42598;SDS011;28225;42.714;23.860;2022-08-01T00:21:28;9.10;;;7.60;;
42598;SDS011;28225;42.714;23.860;2022-08-01T00:23:53;8.63;;;7.03;;
42598;SDS011;28225;42.714;23.860;2022-08-01T00:26:19;8.20;;;7.40;;
42598;SDS011;28225;42.714;23.860;2022-08-01T00:28:44;9.75;;;8.60;;
42598;SDS011;28225;42.714;23.860;2022-08-01T00:31:10;9.38;;;7.43;;
42598;SDS011;28225;42.714;23.860;2022-08-01T00:33:35;10.13;;;7.93;;
42598;SDS011;28225;42.714;23.860;2022-08-01T00:36:01;8.20;;;7.32;;
42598;SDS011;28225;42.714;23.860;2022-08-01T00:38:26;13.50;;;8.32;;
42598;SDS011;28225;42.714;23.860;2022-08-01T00:40:51;11.52;;;8.25;;
42598;SDS011;28225;42.714;23.860;2022-08-01T00:43:17;9.05;;;8.15;;
42598;SDS011;28225;42.714;23.860;2022-08-01T00:45:42;8.82;;;7.68;;
42598;SDS011;28225;42.714;23.860;2022-08-01T00:48:08;11.57;;;7.47;;
42598;SDS011;28225;42.714;23.860;2022-08-01T00:50:33;8.55;;;7.75;;
42598;SDS011;28225;42.714;23.860;2022-08-01T00:52:59;8.07;;;7.28;;
42598;SDS011;28225;42.714;23.860;2022-08-01T00:55:28;9.07;;;7.00;;
42598;SDS011;28225;42.714;23.860;2022-08-01T00:57:54;7.65;;;6.95;;
42598;SDS011;28225;42.714;23.860;2022-08-01T01:00:20;7.32;;;6.63;;
42598;SDS011;28225;42.714;23.860;2022-08-01T01:02:46;7.78;;;6.65;;
42598;SDS011;28225;42.714;23.860;2022-08-01T01:05:12;7.70;;;6.97;;
42598;SDS011;28225;42.714;23.860;2022-08-01T01:18:13;7.75;;;6.95;;
42598;SDS011;28225;42.714;23.860;2022-08-01T01:20:44;6.60;;;6.00;;
42598;SDS011;28225;42.714;23.860;2022-08-01T01:31:22;7.47;;;6.72;;
42598;SDS011;28225;42.714;23.860;2022-08-01T01:33:49;7.25;;;6.55;;
42598;SDS011;28225;42.714;23.860;2022-08-01T01:36:14;10.02;;;7.47;;
42598;SDS011;28225;42.714;23.860;2022-08-01T01:38:42;7.70;;;6.88;;
42598;SDS011;28225;42.714;23.860;2022-08-01T01:41:09;7.28;;;6.63;;
42598;SDS011;28225;42.714;23.860;2022-08-01T01:43:36;8.80;;;6.65;;
42598;SDS011;28225;42.714;23.860;2022-08-01T01:46:03;8.27;;;7.35;;
42598;SDS011;28225;42.714;23.860;2022-08-01T01:48:29;8.65;;;6.45;;
42598;SDS011;28225;42.714;23.860;2022-08-01T01:50:56;7.10;;;6.38;;
42598;SDS011;28225;42.714;23.860;2022-08-01T01:53:21;8.23;;;6.03;;
42598;SDS011;28225;42.714;23.860;2022-08-01T01:55:48;7.10;;;6.30;;
42598;SDS011;28225;42.714;23.860;2022-08-01T01:58:17;6.85;;;6.15;;
42598;SDS011;28225;42.714;23.860;2022-08-01T02:00:43;7.32;;;6.63;;
42598;SDS011;28225;42.714;23.860;2022-08-01T02:03:11;7.07;;;5.30;;
42598;SDS011;28225;42.714;23.860;2022-08-01T02:05:37;5.93;;;5.32;;
42598;SDS011;28225;42.714;23.860;2022-08-01T02:08:04;6.45;;;5.82;;
42598;SDS011;28225;42.714;23.860;2022-08-01T02:10:31;5.63;;;5.07;;
42598;SDS011;28225;42.714;23.860;2022-08-01T02:13:00;6.85;;;6.03;;
42598;SDS011;28225;42.714;23.860;2022-08-01T02:15:28;7.97;;;6.57;;
42598;SDS011;28225;42.714;23.860;2022-08-01T02:17:54;10.00;;;6.45;;
42598;SDS011;28225;42.714;23.860;2022-08-01T02:20:21;7.65;;;6.85;;
42598;SDS011;28225;42.714;23.860;2022-08-01T02:22:49;7.78;;;7.00;;
42598;SDS011;28225;42.714;23.860;2022-08-01T02:25:22;9.43;;;6.25;;
42598;SDS011;28225;42.714;23.860;2022-08-01T02:27:54;5.68;;;5.07;;
42598;SDS011;28225;42.714;23.860;2022-08-01T02:30:35;6.32;;;5.45;;
42598;SDS011;28225;42.714;23.860;2022-08-01T02:33:03;5.80;;;5.20;;
42598;SDS011;28225;42.714;23.860;2022-08-01T02:35:32;7.43;;;4.90;;
42598;SDS011;28225;42.714;23.860;2022-08-01T02:40:29;9.20;;;4.75;;
42598;SDS011;28225;42.714;23.860;2022-08-01T02:42:59;5.10;;;4.60;;
42598;SDS011;28225;42.714;23.860;2022-08-01T02:45:25;15.27;;;5.25;;
42598;SDS011;28225;42.714;23.860;2022-08-01T02:47:52;6.07;;;5.22;;
42598;SDS011;28225;42.714;23.860;2022-08-01T02:50:25;6.97;;;5.72;;
42598;SDS011;28225;42.714;23.860;2022-08-01T02:52:51;6.20;;;5.60;;
42598;SDS011;28225;42.714;23.860;2022-08-01T02:55:17;5.82;;;5.25;;
42598;SDS011;28225;42.714;23.860;2022-08-01T02:57:44;5.22;;;4.68;;
42598;SDS011;28225;42.714;23.860;2022-08-01T03:00:12;6.28;;;5.07;;
42598;SDS011;28225;42.714;23.860;2022-08-01T03:02:39;8.70;;;5.32;;
42598;SDS011;28225;42.714;23.860;2022-08-01T03:05:05;7.80;;;5.55;;
42598;SDS011;28225;42.714;23.860;2022-08-01T03:07:33;6.45;;;5.05;;
42598;SDS011;28225;42.714;23.860;2022-08-01T03:09:58;8.30;;;5.95;;
42598;SDS011;28225;42.714;23.860;2022-08-01T03:12:25;7.47;;;6.53;;
42598;SDS011;28225;42.714;23.860;2022-08-01T03:14:53;8.85;;;5.97;;
42598;SDS011;28225;42.714;23.860;2022-08-01T03:17:20;6.57;;;5.82;;
42598;SDS011;28225;42.714;23.860;2022-08-01T03:19:46;6.75;;;6.05;;
42598;SDS011;28225;42.714;23.860;2022-08-01T03:22:13;6.63;;;6.00;;
42598;SDS011;28225;42.714;23.860;2022-08-01T03:24:40;8.73;;;6.38;;
42598;SDS011;28225;42.714;23.860;2022-08-01T03:27:06;6.82;;;5.40;;
42598;SDS011;28225;42.714;23.860;2022-08-01T03:29:33;7.22;;;5.57;;
42598;SDS011;28225;42.714;23.860;2022-08-01T03:32:00;4.45;;;4.05;;
42598;SDS011;28225;42.714;23.860;2022-08-01T03:34:25;6.20;;;4.70;;
42598;SDS011;28225;42.714;23.860;2022-08-01T03:39:55;4.95;;;4.45;;
42598;SDS011;28225;42.714;23.860;2022-08-01T03:42:37;5.57;;;4.72;;
42598;SDS011;28225;42.714;23.860;2022-08-01T03:45:05;7.38;;;5.55;;
42598;SDS011;28225;42.714;23.860;2022-08-01T03:47:34;11.05;;;5.57;;
42598;SDS011;28225;42.714;23.860;2022-08-01T03:50:01;6.80;;;6.05;;
42598;SDS011;28225;42.714;23.860;2022-08-01T03:52:29;6.40;;;5.70;;
42598;SDS011;28225;42.714;23.860;2022-08-01T03:54:56;8.75;;;5.97;;
42598;SDS011;28225;42.714;23.860;2022-08-01T03:57:23;5.60;;;5.07;;
42598;SDS011;28225;42.714;23.860;2022-08-01T03:59:50;6.03;;;5.45;;
42598;SDS011;28225;42.714;23.860;2022-08-01T04:02:16;9.07;;;6.05;;
42598;SDS011;28225;42.714;23.860;2022-08-01T04:04:43;8.13;;;5.50;;
42598;SDS011;28225;42.714;23.860;2022-08-01T04:07:21;5.72;;;5.22;;
42598;SDS011;28225;42.714;23.860;2022-08-01T04:09:48;9.68;;;6.53;;
42598;SDS011;28225;42.714;23.860;2022-08-01T04:12:13;6.40;;;5.80;;
42598;SDS011;28225;42.714;23.860;2022-08-01T04:14:39;6.35;;;5.70;;
42598;SDS011;28225;42.714;23.860;2022-08-01T04:17:04;6.65;;;5.90;;
42598;SDS011;28225;42.714;23.860;2022-08-01T04:19:30;143.52;;;58.50;;
42598;SDS011;28225;42.714;23.860;2022-08-01T04:21:55;146.55;;;62.20;;
42598;SDS011;28225;42.714;23.860;2022-08-01T04:24:21;38.38;;;19.63;;
42598;SDS011;28225;42.714;23.860;2022-08-01T04:26:48;13.55;;;9.82;;
42598;SDS011;28225;42.714;23.860;2022-08-01T04:29:16;13.00;;;7.88;;
42598;SDS011;28225;42.714;23.860;2022-08-01T04:31:43;10.57;;;7.38;;
42598;SDS011;28225;42.714;23.860;2022-08-01T04:34:10;12.95;;;9.43;;
42598;SDS011;28225;42.714;23.860;2022-08-01T04:36:37;50.10;;;31.63;;
42598;SDS011;28225;42.714;23.860;2022-08-01T04:39:03;34.28;;;22.50;;
42598;SDS011;28225;42.714;23.860;2022-08-01T04:41:30;24.42;;;17.85;;
42598;SDS011;28225;42.714;23.860;2022-08-01T04:43:56;22.10;;;15.88;;
42598;SDS011;28225;42.714;23.860;2022-08-01T04:46:24;21.90;;;16.58;;
42598;SDS011;28225;42.714;23.860;2022-08-01T04:48:50;26.30;;;18.92;;
42598;SDS011;28225;42.714;23.860;2022-08-01T04:51:15;22.13;;;16.52;;
42598;SDS011;28225;42.714;23.860;2022-08-01T04:53:43;20.35;;;15.38;;
42598;SDS011;28225;42.714;23.860;2022-08-01T04:56:10;24.07;;;13.87;;
42598;SDS011;28225;42.714;23.860;2022-08-01T04:58:38;12.45;;;10.30;;
42598;SDS011;28225;42.714;23.860;2022-08-01T05:01:05;9.38;;;6.63;;
42598;SDS011;28225;42.714;23.860;2022-08-01T05:03:30;7.32;;;6.63;;
42598;SDS011;28225;42.714;23.860;2022-08-01T05:05:56;7.78;;;6.82;;
42598;SDS011;28225;42.714;23.860;2022-08-01T05:08:21;9.98;;;7.00;;
42598;SDS011;28225;42.714;23.860;2022-08-01T05:10:47;8.07;;;6.15;;
42598;SDS011;28225;42.714;23.860;2022-08-01T05:13:12;8.30;;;5.30;;
42598;SDS011;28225;42.714;23.860;2022-08-01T05:15:38;6.10;;;4.55;;
42598;SDS011;28225;42.714;23.860;2022-08-01T05:18:03;8.95;;;4.80;;
42598;SDS011;28225;42.714;23.860;2022-08-01T05:20:29;4.78;;;4.35;;
42598;SDS011;28225;42.714;23.860;2022-08-01T05:22:54;5.55;;;4.82;;
42598;SDS011;28225;42.714;23.860;2022-08-01T05:25:19;7.70;;;4.93;;
42598;SDS011;28225;42.714;23.860;2022-08-01T05:27:45;7.63;;;4.70;;
42598;SDS011;28225;42.714;23.860;2022-08-01T05:30:11;4.10;;;3.80;;
42598;SDS011;28225;42.714;23.860;2022-08-01T05:32:37;3.80;;;3.40;;
42598;SDS011;28225;42.714;23.860;2022-08-01T05:35:03;4.90;;;4.40;;
42598;SDS011;28225;42.714;23.860;2022-08-01T05:37:29;3.30;;;3.10;;
42598;SDS011;28225;42.714;23.860;2022-08-01T05:39:55;3.55;;;3.20;;
42598;SDS011;28225;42.714;23.860;2022-08-01T05:42:20;6.18;;;3.60;;
42598;SDS011;28225;42.714;23.860;2022-08-01T05:44:45;4.53;;;3.30;;
42598;SDS011;28225;42.714;23.860;2022-08-01T05:47:12;5.03;;;4.13;;
42598;SDS011;28225;42.714;23.860;2022-08-01T05:49:37;3.88;;;2.83;;
42598;SDS011;28225;42.714;23.860;2022-08-01T05:52:03;6.88;;;2.90;;
42598;SDS011;28225;42.714;23.860;2022-08-01T05:54:30;3.50;;;3.20;;
42598;SDS011;28225;42.714;23.860;2022-08-01T05:56:55;2.85;;;2.60;;
42598;SDS011;28225;42.714;23.860;2022-08-01T05:59:24;4.15;;;2.80;;
42598;SDS011;28225;42.714;23.860;2022-08-01T06:01:50;3.30;;;2.58;;
42598;SDS011;28225;42.714;23.860;2022-08-01T06:04:16;7.95;;;2.78;;
42598;SDS011;28225;42.714;23.860;2022-08-01T06:06:41;4.47;;;2.95;;
42598;SDS011;28225;42.714;23.860;2022-08-01T06:09:07;5.07;;;3.08;;
42598;SDS011;28225;42.714;23.860;2022-08-01T06:11:32;4.28;;;2.40;;
42598;SDS011;28225;42.714;23.860;2022-08-01T06:13:58;5.68;;;2.58;;
42598;SDS011;28225;42.714;23.860;2022-08-01T06:16:23;4.97;;;3.33;;
42598;SDS011;28225;42.714;23.860;2022-08-01T06:18:49;5.90;;;2.60;;
42598;SDS011;28225;42.714;23.860;2022-08-01T06:21:14;2.50;;;2.30;;
42598;SDS011;28225;42.714;23.860;2022-08-01T06:23:40;2.95;;;2.65;;
42598;SDS011;28225;42.714;23.860;2022-08-01T06:26:07;2.55;;;2.35;;
42598;SDS011;28225;42.714;23.860;2022-08-01T06:28:33;6.10;;;2.75;;
42598;SDS011;28225;42.714;23.860;2022-08-01T06:30:58;2.75;;;2.45;;
42598;SDS011;28225;42.714;23.860;2022-08-01T06:33:24;8.20;;;2.58;;
42598;SDS011;28225;42.714;23.860;2022-08-01T06:35:50;4.30;;;2.45;;
42598;SDS011;28225;42.714;23.860;2022-08-01T06:38:16;2.83;;;2.58;;
42598;SDS011;28225;42.714;23.860;2022-08-01T06:40:41;3.80;;;2.30;;
42598;SDS011;28225;42.714;23.860;2022-08-01T06:43:07;5.90;;;2.60;;
42598;SDS011;28225;42.714;23.860;2022-08-01T06:45:32;4.38;;;2.95;;
42598;SDS011;28225;42.714;23.860;2022-08-01T06:47:58;3.00;;;2.70;;
42598;SDS011;28225;42.714;23.860;2022-08-01T06:50:23;3.75;;;2.10;;
42598;SDS011;28225;42.714;23.860;2022-08-01T06:52:49;7.18;;;2.10;;
42598;SDS011;28225;42.714;23.860;2022-08-01T06:55:14;2.92;;;2.20;;
42598;SDS011;28225;42.714;23.860;2022-08-01T06:57:47;2.22;;;1.92;;
42598;SDS011;28225;42.714;23.860;2022-08-01T07:00:17;2.00;;;1.75;;
42598;SDS011;28225;42.714;23.860;2022-08-01T07:02:46;7.38;;;2.20;;
42598;SDS011;28225;42.714;23.860;2022-08-01T07:05:12;2.00;;;1.80;;
42598;SDS011;28225;42.714;23.860;2022-08-01T07:07:38;9.77;;;2.58;;
42598;SDS011;28225;42.714;23.860;2022-08-01T07:10:03;2.97;;;2.58;;
42598;SDS011;28225;42.714;23.860;2022-08-01T07:12:29;2.28;;;1.67;;
42598;SDS011;28225;42.714;23.860;2022-08-01T07:14:55;4.85;;;1.75;;
42598;SDS011;28225;42.714;23.860;2022-08-01T07:17:20;2.20;;;1.63;;
42598;SDS011;28225;42.714;23.860;2022-08-01T07:19:46;2.10;;;1.90;;
42598;SDS011;28225;42.714;23.860;2022-08-01T07:22:12;5.45;;;2.40;;
42598;SDS011;28225;42.714;23.860;2022-08-01T07:24:39;3.15;;;1.85;;
42598;SDS011;28225;42.714;23.860;2022-08-01T07:27:04;3.50;;;1.95;;
42598;SDS011;28225;42.714;23.860;2022-08-01T07:29:30;2.90;;;2.60;;
42598;SDS011;28225;42.714;23.860;2022-08-01T07:31:56;3.83;;;2.47;;
42598;SDS011;28225;42.714;23.860;2022-08-01T07:34:22;3.42;;;2.03;;
42598;SDS011;28225;42.714;23.860;2022-08-01T07:36:49;2.67;;;2.13;;
42598;SDS011;28225;42.714;23.860;2022-08-01T07:39:15;2.35;;;2.15;;
42598;SDS011;28225;42.714;23.860;2022-08-01T07:41:40;2.13;;;1.83;;
42598;SDS011;28225;42.714;23.860;2022-08-01T07:44:06;2.58;;;1.70;;
42598;SDS011;28225;42.714;23.860;2022-08-01T07:46:31;6.45;;;1.98;;
42598;SDS011;28225;42.714;23.860;2022-08-01T07:48:57;3.03;;;2.03;;
42598;SDS011;28225;42.714;23.860;2022-08-01T07:51:22;3.25;;;1.90;;
42598;SDS011;28225;42.714;23.860;2022-08-01T07:53:48;9.05;;;2.15;;
42598;SDS011;28225;42.714;23.860;2022-08-01T07:56:13;1.88;;;1.70;;
42598;SDS011;28225;42.714;23.860;2022-08-01T07:58:39;1.75;;;1.65;;
42598;SDS011;28225;42.714;23.860;2022-08-01T08:01:04;1.88;;;1.73;;
42598;SDS011;28225;42.714;23.860;2022-08-01T08:03:30;2.05;;;1.80;;
42598;SDS011;28225;42.714;23.860;2022-08-01T08:05:55;3.00;;;2.13;;
42598;SDS011;28225;42.714;23.860;2022-08-01T08:08:21;3.45;;;2.13;;
42598;SDS011;28225;42.714;23.860;2022-08-01T08:10:46;2.38;;;1.90;;
42598;SDS011;28225;42.714;23.860;2022-08-01T08:13:12;8.95;;;2.15;;
42598;SDS011;28225;42.714;23.860;2022-08-01T08:15:38;2.15;;;1.90;;
42598;SDS011;28225;42.714;23.860;2022-08-01T08:18:03;4.10;;;1.70;;
42598;SDS011;28225;42.714;23.860;2022-08-01T08:20:29;2.22;;;1.80;;
42598;SDS011;28225;42.714;23.860;2022-08-01T08:22:55;3.92;;;1.88;;
42598;SDS011;28225;42.714;23.860;2022-08-01T08:25:23;3.22;;;1.80;;
42598;SDS011;28225;42.714;23.860;2022-08-01T08:27:48;5.47;;;1.67;;
42598;SDS011;28225;42.714;23.860;2022-08-01T08:30:14;2.03;;;1.40;;
42598;SDS011;28225;42.714;23.860;2022-08-01T08:32:40;2.95;;;1.50;;
42598;SDS011;28225;42.714;23.860;2022-08-01T08:35:06;2.45;;;1.73;;
42598;SDS011;28225;42.714;23.860;2022-08-01T08:37:33;4.30;;;1.60;;
42598;SDS011;28225;42.714;23.860;2022-08-01T08:40:00;6.70;;;1.95;;
42598;SDS011;28225;42.714;23.860;2022-08-01T08:42:25;1.95;;;1.60;;
42598;SDS011;28225;42.714;23.860;2022-08-01T08:44:51;1.45;;;1.35;;
42598;SDS011;28225;42.714;23.860;2022-08-01T08:47:19;1.30;;;1.20;;
42598;SDS011;28225;42.714;23.860;2022-08-01T08:49:45;1.65;;;1.52;;
42598;SDS011;28225;42.714;23.860;2022-08-01T08:52:11;2.00;;;1.80;;
42598;SDS011;28225;42.714;23.860;2022-08-01T08:54:37;2.35;;;1.90;;
42598;SDS011;28225;42.714;23.860;2022-08-01T08:57:03;1.42;;;1.33;;
42598;SDS011;28225;42.714;23.860;2022-08-01T08:59:30;2.35;;;1.20;;
42598;SDS011;28225;42.714;23.860;2022-08-01T09:01:56;1.58;;;1.48;;
42598;SDS011;28225;42.714;23.860;2022-08-01T09:04:22;1.73;;;1.63;;
42598;SDS011;28225;42.714;23.860;2022-08-01T09:06:48;1.58;;;1.25;;
42598;SDS011;28225;42.714;23.860;2022-08-01T09:09:13;3.63;;;1.70;;
42598;SDS011;28225;42.714;23.860;2022-08-01T09:11:39;3.28;;;1.50;;
42598;SDS011;28225;42.714;23.860;2022-08-01T09:14:08;2.35;;;1.20;;
42598;SDS011;28225;42.714;23.860;2022-08-01T09:16:36;1.85;;;1.10;;
42598;SDS011;28225;42.714;23.860;2022-08-01T09:19:08;1.77;;;1.67;;
42598;SDS011;28225;42.714;23.860;2022-08-01T09:21:34;2.20;;;1.40;;
42598;SDS011;28225;42.714;23.860;2022-08-01T09:23:59;1.42;;;1.08;;
42598;SDS011;28225;42.714;23.860;2022-08-01T09:26:35;3.30;;;1.83;;
42598;SDS011;28225;42.714;23.860;2022-08-01T09:29:04;1.00;;;1.00;;
42598;SDS011;28225;42.714;23.860;2022-08-01T09:31:41;1.20;;;1.10;;
42598;SDS011;28225;42.714;23.860;2022-08-01T09:34:08;3.15;;;1.40;;
42598;SDS011;28225;42.714;23.860;2022-08-01T09:39:14;1.55;;;1.45;;
42598;SDS011;28225;42.714;23.860;2022-08-01T09:41:40;1.33;;;1.25;;
42598;SDS011;28225;42.714;23.860;2022-08-01T09:44:05;2.10;;;1.35;;
42598;SDS011;28225;42.714;23.860;2022-08-01T09:46:31;2.03;;;1.05;;
42598;SDS011;28225;42.714;23.860;2022-08-01T09:48:57;1.90;;;1.15;;
42598;SDS011;28225;42.714;23.860;2022-08-01T09:51:33;1.60;;;1.50;;
42598;SDS011;28225;42.714;23.860;2022-08-01T09:54:01;1.85;;;1.38;;
42598;SDS011;28225;42.714;23.860;2022-08-01T09:56:37;1.55;;;1.35;;
42598;SDS011;28225;42.714;23.860;2022-08-01T09:59:04;1.50;;;1.40;;
42598;SDS011;28225;42.714;23.860;2022-08-01T10:01:45;1.63;;;1.52;;
42598;SDS011;28225;42.714;23.860;2022-08-01T10:04:15;1.30;;;1.17;;
42598;SDS011;28225;42.714;23.860;2022-08-01T10:06:43;3.33;;;1.65;;
42598;SDS011;28225;42.714;23.860;2022-08-01T10:09:26;3.08;;;1.85;;
42598;SDS011;28225;42.714;23.860;2022-08-01T10:11:58;2.17;;;1.58;;
42598;SDS011;28225;42.714;23.860;2022-08-01T10:14:25;1.20;;;1.10;;
42598;SDS011;28225;42.714;23.860;2022-08-01T10:16:52;1.92;;;1.55;;
42598;SDS011;28225;42.714;23.860;2022-08-01T10:19:19;1.67;;;1.27;;
42598;SDS011;28225;42.714;23.860;2022-08-01T10:21:46;4.20;;;1.45;;
42598;SDS011;28225;42.714;23.860;2022-08-01T10:24:14;2.05;;;1.35;;
42598;SDS011;28225;42.714;23.860;2022-08-01T10:26:40;1.85;;;1.30;;
42598;SDS011;28225;42.714;23.860;2022-08-01T10:29:06;1.55;;;1.45;;
42598;SDS011;28225;42.714;23.860;2022-08-01T10:31:32;3.00;;;1.33;;
42598;SDS011;28225;42.714;23.860;2022-08-01T10:33:58;3.20;;;1.70;;
42598;SDS011;28225;42.714;23.860;2022-08-01T10:36:25;2.22;;;1.90;;
42598;SDS011;28225;42.714;23.860;2022-08-01T10:38:51;3.55;;;1.42;;
42598;SDS011;28225;42.714;23.860;2022-08-01T10:41:17;1.98;;;1.65;;
42598;SDS011;28225;42.714;23.860;2022-08-01T10:43:43;2.20;;;1.50;;
42598;SDS011;28225;42.714;23.860;2022-08-01T10:46:09;2.30;;;1.48;;
42598;SDS011;28225;42.714;23.860;2022-08-01T10:51:25;1.58;;;1.45;;
42598;SDS011;28225;42.714;23.860;2022-08-01T10:53:52;4.22;;;1.83;;
42598;SDS011;28225;42.714;23.860;2022-08-01T10:56:18;1.35;;;1.05;;
42598;SDS011;28225;42.714;23.860;2022-08-01T10:58:46;1.83;;;1.48;;
42598;SDS011;28225;42.714;23.860;2022-08-01T11:11:31;4.38;;;1.20;;
42598;SDS011;28225;42.714;23.860;2022-08-01T11:16:51;1.70;;;1.42;;
42598;SDS011;28225;42.714;23.860;2022-08-01T11:19:16;2.50;;;1.80;;
42598;SDS011;28225;42.714;23.860;2022-08-01T11:27:18;1.52;;;1.42;;
42598;SDS011;28225;42.714;23.860;2022-08-01T11:29:48;4.75;;;1.50;;
42598;SDS011;28225;42.714;23.860;2022-08-01T11:32:48;11.23;;;2.60;;
42598;SDS011;28225;42.714;23.860;2022-08-01T11:35:15;2.03;;;1.77;;
42598;SDS011;28225;42.714;23.860;2022-08-01T11:37:41;2.13;;;1.63;;
42598;SDS011;28225;42.714;23.860;2022-08-01T11:50:44;3.30;;;1.92;;
42598;SDS011;28225;42.714;23.860;2022-08-01T11:53:09;1.80;;;1.70;;
42598;SDS011;28225;42.714;23.860;2022-08-01T11:55:35;2.28;;;2.08;;
42598;SDS011;28225;42.714;23.860;2022-08-01T11:58:01;2.28;;;2.10;;
42598;SDS011;28225;42.714;23.860;2022-08-01T12:00:28;3.30;;;1.90;;
42598;SDS011;28225;42.714;23.860;2022-08-01T12:03:04;9.40;;;2.92;;
42598;SDS011;28225;42.714;23.860;2022-08-01T12:05:32;5.45;;;2.38;;
42598;SDS011;28225;42.714;23.860;2022-08-01T12:07:59;3.03;;;2.00;;
42598;SDS011;28225;42.714;23.860;2022-08-01T12:10:27;2.00;;;1.90;;
42598;SDS011;28225;42.714;23.860;2022-08-01T12:13:00;1.90;;;1.80;;
42598;SDS011;28225;42.714;23.860;2022-08-01T12:15:34;2.42;;;1.88;;
42598;SDS011;28225;42.714;23.860;2022-08-01T12:18:01;2.97;;;2.15;;
42598;SDS011;28225;42.714;23.860;2022-08-01T12:22:56;1.67;;;1.58;;
42598;SDS011;28225;42.714;23.860;2022-08-01T12:25:23;1.85;;;1.73;;
42598;SDS011;28225;42.714;23.860;2022-08-01T12:27:49;2.13;;;1.73;;
42598;SDS011;28225;42.714;23.860;2022-08-01T12:30:15;1.65;;;1.55;;
42598;SDS011;28225;42.714;23.860;2022-08-01T12:32:43;2.17;;;1.80;;
42598;SDS011;28225;42.714;23.860;2022-08-01T12:37:45;2.10;;;1.90;;
42598;SDS011;28225;42.714;23.860;2022-08-01T12:40:22;1.75;;;1.60;;
42598;SDS011;28225;42.714;23.860;2022-08-01T12:42:55;2.28;;;1.83;;
42598;SDS011;28225;42.714;23.860;2022-08-01T12:45:26;9.00;;;2.20;;
42598;SDS011;28225;42.714;23.860;2022-08-01T12:47:54;2.38;;;1.98;;
42598;SDS011;28225;42.714;23.860;2022-08-01T12:50:20;2.50;;;2.00;;
42598;SDS011;28225;42.714;23.860;2022-08-01T12:52:48;1.70;;;1.60;;
42598;SDS011;28225;42.714;23.860;2022-08-01T12:55:20;2.30;;;1.52;;
42598;SDS011;28225;42.714;23.860;2022-08-01T12:57:49;2.58;;;1.90;;
42598;SDS011;28225;42.714;23.860;2022-08-01T13:00:27;2.03;;;1.70;;
42598;SDS011;28225;42.714;23.860;2022-08-01T13:03:03;1.75;;;1.65;;
42598;SDS011;28225;42.714;23.860;2022-08-01T13:05:42;3.80;;;2.15;;
42598;SDS011;28225;42.714;23.860;2022-08-01T13:08:09;2.97;;;1.98;;
42598;SDS011;28225;42.714;23.860;2022-08-01T13:10:40;3.90;;;1.75;;
42598;SDS011;28225;42.714;23.860;2022-08-01T13:13:06;2.20;;;1.40;;
42598;SDS011;28225;42.714;23.860;2022-08-01T13:15:33;2.33;;;1.63;;
42598;SDS011;28225;42.714;23.860;2022-08-01T13:18:01;1.58;;;1.48;;
42598;SDS011;28225;42.714;23.860;2022-08-01T13:21:13;4.43;;;1.70;;
42598;SDS011;28225;42.714;23.860;2022-08-01T13:26:51;1.42;;;1.33;;
42598;SDS011;28225;42.714;23.860;2022-08-01T13:29:22;1.77;;;1.35;;
42598;SDS011;28225;42.714;23.860;2022-08-01T13:32:14;2.78;;;1.92;;
42598;SDS011;28225;42.714;23.860;2022-08-01T13:34:44;4.07;;;1.50;;
42598;SDS011;28225;42.714;23.860;2022-08-01T13:37:09;1.60;;;1.50;;
42598;SDS011;28225;42.714;23.860;2022-08-01T13:39:35;1.50;;;1.40;;
42598;SDS011;28225;42.714;23.860;2022-08-01T13:42:13;1.60;;;1.50;;
42598;SDS011;28225;42.714;23.860;2022-08-01T13:44:40;1.40;;;1.30;;
42598;SDS011;28225;42.714;23.860;2022-08-01T13:47:07;1.40;;;1.17;;
42598;SDS011;28225;42.714;23.860;2022-08-01T13:49:33;1.67;;;1.58;;
42598;SDS011;28225;42.714;23.860;2022-08-01T13:51:59;4.05;;;1.27;;
42598;SDS011;28225;42.714;23.860;2022-08-01T13:54:25;1.70;;;1.60;;
42598;SDS011;28225;42.714;23.860;2022-08-01T13:56:50;1.65;;;1.40;;
42598;SDS011;28225;42.714;23.860;2022-08-01T13:59:16;8.88;;;2.33;;
42598;SDS011;28225;42.714;23.860;2022-08-01T14:01:42;5.63;;;1.60;;
42598;SDS011;28225;42.714;23.860;2022-08-01T14:04:08;1.60;;;1.50;;
42598;SDS011;28225;42.714;23.860;2022-08-01T14:06:35;1.85;;;1.67;;
42598;SDS011;28225;42.714;23.860;2022-08-01T14:09:05;1.45;;;1.35;;
42598;SDS011;28225;42.714;23.860;2022-08-01T14:11:30;1.48;;;1.27;;
42598;SDS011;28225;42.714;23.860;2022-08-01T14:13:56;1.65;;;1.52;;
42598;SDS011;28225;42.714;23.860;2022-08-01T14:16:22;1.40;;;1.30;;
42598;SDS011;28225;42.714;23.860;2022-08-01T14:18:47;1.50;;;1.40;;
42598;SDS011;28225;42.714;23.860;2022-08-01T14:21:13;3.25;;;1.60;;
42598;SDS011;28225;42.714;23.860;2022-08-01T14:23:39;4.55;;;1.70;;
42598;SDS011;28225;42.714;23.860;2022-08-01T14:26:05;1.63;;;1.52;;
42598;SDS011;28225;42.714;23.860;2022-08-01T14:28:30;1.88;;;1.70;;
42598;SDS011;28225;42.714;23.860;2022-08-01T14:30:57;4.50;;;2.03;;
42598;SDS011;28225;42.714;23.860;2022-08-01T14:33:23;4.30;;;1.58;;
42598;SDS011;28225;42.714;23.860;2022-08-01T14:35:48;2.67;;;1.63;;
42598;SDS011;28225;42.714;23.860;2022-08-01T14:38:14;1.83;;;1.70;;
42598;SDS011;28225;42.714;23.860;2022-08-01T14:40:39;2.10;;;1.90;;
42598;SDS011;28225;42.714;23.860;2022-08-01T14:43:08;1.63;;;1.52;;
42598;SDS011;28225;42.714;23.860;2022-08-01T14:45:34;1.75;;;1.65;;
42598;SDS011;28225;42.714;23.860;2022-08-01T14:47:59;1.60;;;1.45;;
42598;SDS011;28225;42.714;23.860;2022-08-01T14:50:25;1.70;;;1.60;;
42598;SDS011;28225;42.714;23.860;2022-08-01T14:52:54;3.35;;;1.80;;
42598;SDS011;28225;42.714;23.860;2022-08-01T14:55:19;1.60;;;1.50;;
42598;SDS011;28225;42.714;23.860;2022-08-01T14:57:48;2.30;;;1.55;;
42598;SDS011;28225;42.714;23.860;2022-08-01T15:00:14;2.50;;;1.45;;
42598;SDS011;28225;42.714;23.860;2022-08-01T15:02:40;1.90;;;1.70;;
42598;SDS011;28225;42.714;23.860;2022-08-01T15:05:06;2.60;;;1.70;;
42598;SDS011;28225;42.714;23.860;2022-08-01T15:07:33;2.03;;;1.60;;
42598;SDS011;28225;42.714;23.860;2022-08-01T15:09:58;3.65;;;1.70;;
42598;SDS011;28225;42.714;23.860;2022-08-01T15:12:24;4.18;;;1.70;;
42598;SDS011;28225;42.714;23.860;2022-08-01T15:14:49;1.75;;;1.60;;
42598;SDS011;28225;42.714;23.860;2022-08-01T15:19:47;2.00;;;1.83;;
42598;SDS011;28225;42.714;23.860;2022-08-01T15:22:14;3.10;;;1.48;;
42598;SDS011;28225;42.714;23.860;2022-08-01T15:24:40;4.20;;;1.50;;
42598;SDS011;28225;42.714;23.860;2022-08-01T15:27:06;2.05;;;1.60;;
42598;SDS011;28225;42.714;23.860;2022-08-01T15:29:33;15.07;;;2.00;;
42598;SDS011;28225;42.714;23.860;2022-08-01T15:31:59;5.75;;;1.73;;
42598;SDS011;28225;42.714;23.860;2022-08-01T15:34:25;1.45;;;1.35;;
42598;SDS011;28225;42.714;23.860;2022-08-01T15:36:51;3.30;;;1.92;;
42598;SDS011;28225;42.714;23.860;2022-08-01T15:39:17;1.48;;;1.38;;
42598;SDS011;28225;42.714;23.860;2022-08-01T15:41:42;1.48;;;1.38;;
42598;SDS011;28225;42.714;23.860;2022-08-01T15:44:08;5.43;;;1.70;;